Aeroporto :
LOGIN :

Iscrizione | Disclaimer

   EN    FR    IT 

 










Sommario :    VFR   VFR Marginale   IFR   IFR Intensivo   IFR Molto Intensivo
Visibilità : 
Base nubi : 
>= 8 km
>= 3000ft
5 / 8 km
1000 / 3000 ft
1500m / 5 km
500 / 1000 ft
800 / 1500m
200 / 500 ft
< 800m
< 200 ft
Simboli :   Temporali  Nebbia  Neve Forte  Precipitazioni Forti  Vento > 20 kt
SIGMETs :   Varie  Temporali  Ghiacco  Turbolenza  Onda orograficha  Ceneri Vulcaniche






- Altitudine del aeroporto : 289 ft


LFYR - Romorantin Pruniers

ULTIMO METAR :
  • 232000Z AUTO 25006KT 210V280 5000 BR OVC008 11/10 Q1030

METARs OBSOLETI :
  • 231930Z AUTO 24008KT 210V270 9999 OVC010 11/10 Q1029
  • 231900Z AUTO 24010KT 210V280 9999 OVC011 11/10 Q1029
  • 231830Z AUTO 24010KT 200V280 9999 OVC012 12/10 Q1029
  • 231800Z AUTO 24013KT 200V270 9999 OVC013 12/10 Q1029
  • 231730Z AUTO 24014KT 210V270 9999 OVC015 12/09 Q1029

Previsioni scadute.



MetMap, La meteo Aeronautica in un colpo d'occhio ! - Copyright ORBIFLY Dicembre 2007 - Disclaimer

ORBIFLY MET'MAP TEAM :

Programmazione e sviluppo : Alexandra Zaïnal
Concezione : Baudouin d'Aumeries
Aiuto per la programmazione : Marc-Olivier Méhu
Supporto tecnico e logistico : Manuel Goepfert
Aiuto per la traduzione : Arnaldo La Scala

Contatto : metmap@orbifly.com




FONTI E CREDITI :

   NOAA